createdAt,value
2023-06-29T00:01:28.633Z,98966.59
2023-06-29T00:03:59.663Z,98974.59
2023-06-29T00:06:37.923Z,98969.22
2023-06-29T00:09:07.735Z,98972.56
2023-06-29T00:11:34.480Z,98967.19
2023-06-29T00:14:01.084Z,98967.19
2023-06-29T00:16:27.663Z,98963.63
2023-06-29T00:18:56.311Z,98960.78
2023-06-29T00:21:25.932Z,98970.53
2023-06-29T00:23:58.194Z,98955.34
2023-06-29T00:26:27.771Z,98960.69
2023-06-29T00:28:55.367Z,98952.66
2023-06-29T00:31:28.448Z,98964.44
2023-06-29T00:33:55.101Z,98954.72
2023-06-29T00:36:22.016Z,98958.34
2023-06-29T00:38:51.582Z,98953.75
2023-06-29T00:41:18.111Z,98949.22
2023-06-29T00:43:51.064Z,98949.22
2023-06-29T00:46:25.735Z,98950.84
2023-06-29T00:48:55.366Z,98953.53
2023-06-29T00:51:25.441Z,98952.59
2023-06-29T00:53:51.939Z,98949.91
2023-06-29T00:56:22.364Z,98943.59
2023-06-29T00:58:49.721Z,98949.88
2023-06-29T01:01:16.308Z,98939.94
2023-06-29T01:03:43.444Z,98933.69
2023-06-29T01:06:16.076Z,98935.56
2023-06-29T01:08:52.605Z,98936.38
2023-06-29T01:11:21.362Z,98942.75
2023-06-29T01:13:53.967Z,98950.84
2023-06-29T01:16:22.416Z,98947.25
2023-06-29T01:18:49.383Z,98943.66
2023-06-29T01:21:17.148Z,98944.41
2023-06-29T01:23:46.380Z,98937.09
2023-06-29T01:26:13.254Z,98929.13
2023-06-29T01:28:40.149Z,98929.00
2023-06-29T01:31:06.758Z,98925.47
2023-06-29T01:33:34.293Z,98928.19
2023-06-29T01:36:18.048Z,98925.44
2023-06-29T01:38:52.880Z,98926.31
2023-06-29T01:41:20.969Z,98930.81
2023-06-29T01:43:48.356Z,98933.38
2023-06-29T01:46:15.370Z,98927.13
2023-06-29T01:48:42.630Z,98921.97
2023-06-29T01:51:09.989Z,98927.38
2023-06-29T01:53:37.694Z,98929.00
2023-06-29T01:56:05.070Z,98927.13
2023-06-29T01:58:31.650Z,98924.56
2023-06-29T02:00:58.279Z,98918.28
2023-06-29T02:03:24.911Z,98922.50
2023-06-29T02:05:51.580Z,98915.22
2023-06-29T02:08:18.120Z,98918.81
2023-06-29T02:10:44.781Z,98914.47
2023-06-29T02:13:11.271Z,98912.94
2023-06-29T02:15:38.002Z,98912.13
2023-06-29T02:18:04.604Z,98905.94
2023-06-29T02:20:31.153Z,98913.97
2023-06-29T02:22:57.628Z,98905.88
2023-06-29T02:25:24.193Z,98908.63
2023-06-29T02:27:50.693Z,98905.00
2023-06-29T02:30:17.282Z,98910.41
2023-06-29T02:32:43.845Z,98905.00
2023-06-29T02:35:10.647Z,98900.53
2023-06-29T02:37:37.143Z,98904.03
2023-06-29T02:40:03.981Z,98911.06
2023-06-29T02:42:30.542Z,98897.53
2023-06-29T02:44:57.050Z,98897.41
2023-06-29T02:47:23.555Z,98896.59
2023-06-29T02:49:50.121Z,98892.28
2023-06-29T02:52:16.644Z,98894.03
2023-06-29T02:54:43.163Z,98881.66
2023-06-29T02:57:09.672Z,98889.75
2023-06-29T02:59:36.235Z,98880.72
2023-06-29T03:02:02.789Z,98884.19
2023-06-29T03:04:29.417Z,98873.47
2023-06-29T03:06:55.958Z,98879.59
2023-06-29T03:09:22.596Z,98876.91
2023-06-29T03:11:49.086Z,98878.72
2023-06-29T03:14:15.606Z,98880.47
2023-06-29T03:16:42.831Z,98876.78
2023-06-29T03:19:09.373Z,98880.28
2023-06-29T03:21:36.176Z,98872.25
2023-06-29T03:24:02.700Z,98870.63
2023-06-29T03:26:29.397Z,98877.13
2023-06-29T03:28:55.934Z,98869.16
2023-06-29T03:31:22.579Z,98865.66
2023-06-29T03:33:52.220Z,98872.00
2023-06-29T03:36:20.291Z,98869.38
2023-06-29T03:38:46.911Z,98872.00
2023-06-29T03:41:13.437Z,98867.72
2023-06-29T03:43:39.930Z,98864.31
2023-06-29T03:46:06.469Z,98865.38
2023-06-29T03:48:33.034Z,98865.56
2023-06-29T03:50:59.625Z,98871.63
2023-06-29T03:53:26.185Z,98872.28
2023-06-29T03:55:52.727Z,98859.81
2023-06-29T03:58:19.389Z,98871.47
2023-06-29T04:00:45.913Z,98863.16
2023-06-29T04:03:12.789Z,98868.22
2023-06-29T04:05:39.533Z,98867.06
2023-06-29T04:08:06.459Z,98867.22
2023-06-29T04:10:34.292Z,98864.72
2023-06-29T04:13:01.056Z,98868.41
2023-06-29T04:15:27.643Z,98867.53
2023-06-29T04:17:54.400Z,98866.25
2023-06-29T04:20:20.998Z,98862.56
2023-06-29T04:22:47.515Z,98869.84
2023-06-29T04:25:14.069Z,98861.19
2023-06-29T04:27:42.161Z,98862.28
2023-06-29T04:30:10.090Z,98861.28
2023-06-29T04:32:36.615Z,98861.81
2023-06-29T04:35:03.577Z,98864.16
2023-06-29T04:37:37.823Z,98862.19
2023-06-29T04:40:08.250Z,98865.56
2023-06-29T04:42:35.036Z,98860.38
2023-06-29T04:45:04.506Z,98862.16
2023-06-29T04:47:33.479Z,98864.84
2023-06-29T04:50:00.158Z,98862.16
2023-06-29T04:52:27.879Z,98858.63
2023-06-29T04:54:54.396Z,98854.31
2023-06-29T04:57:20.948Z,98854.16
2023-06-29T04:59:47.495Z,98851.91
2023-06-29T05:02:14.151Z,98855.53
2023-06-29T05:04:40.685Z,98846.63
2023-06-29T05:07:07.533Z,98853.59
2023-06-29T05:09:34.088Z,98852.59
2023-06-29T05:12:00.725Z,98859.84
2023-06-29T05:14:27.731Z,98853.72
2023-06-29T05:16:54.418Z,98851.81
2023-06-29T05:19:22.118Z,98851.66
2023-06-29T05:21:48.655Z,98852.41
2023-06-29T05:24:15.951Z,98854.28
2023-06-29T05:26:43.890Z,98846.94
2023-06-29T05:29:10.423Z,98845.19
2023-06-29T05:31:37.029Z,98839.72
2023-06-29T05:34:03.624Z,98835.97
2023-06-29T05:36:30.563Z,98839.28
2023-06-29T05:38:57.242Z,98839.41
2023-06-29T05:41:23.760Z,98832.41
2023-06-29T05:43:50.283Z,98832.41
2023-06-29T05:46:16.833Z,98827.69
2023-06-29T05:48:43.453Z,98827.38
2023-06-29T05:51:09.981Z,98828.38
2023-06-29T05:53:36.556Z,98832.94
2023-06-29T05:56:05.862Z,98819.50
2023-06-29T05:58:32.411Z,98828.25
2023-06-29T06:00:58.992Z,98822.88
2023-06-29T06:03:25.624Z,98830.50
2023-06-29T06:05:52.252Z,98837.66
2023-06-29T06:08:18.906Z,98834.78
2023-06-29T06:10:45.807Z,98831.97
2023-06-29T06:13:13.923Z,98830.84
2023-06-29T06:15:41.321Z,98836.00
2023-06-29T06:18:08.001Z,98828.78
2023-06-29T06:20:34.564Z,98824.22
2023-06-29T06:23:01.082Z,98834.09
2023-06-29T06:25:27.603Z,98829.59
2023-06-29T06:27:54.302Z,98833.31
2023-06-29T06:30:22.503Z,98828.53
2023-06-29T06:32:51.150Z,98826.69
2023-06-29T06:35:17.761Z,98828.31
2023-06-29T06:37:44.391Z,98818.09
2023-06-29T06:40:10.980Z,98819.03
2023-06-29T06:42:37.947Z,98827.88
2023-06-29T06:45:05.415Z,98818.38
2023-06-29T06:47:33.013Z,98814.53
2023-06-29T06:50:03.759Z,98813.31
2023-06-29T06:52:30.461Z,98817.34
2023-06-29T06:54:57.337Z,98811.38
2023-06-29T06:57:24.335Z,98817.28
2023-06-29T06:59:50.933Z,98813.63
2023-06-29T07:02:21.405Z,98812.47
2023-06-29T07:04:48.289Z,98808.63
2023-06-29T07:07:14.915Z,98815.50
2023-06-29T07:09:41.528Z,98809.25
2023-06-29T07:12:08.541Z,98817.00
2023-06-29T07:14:35.176Z,98810.41
2023-06-29T07:17:01.814Z,98802.97
2023-06-29T07:24:27.408Z,98799.22
2023-06-29T07:26:54.017Z,98791.88
2023-06-29T07:29:20.786Z,98790.75
2023-06-29T07:31:47.350Z,98792.81
2023-06-29T07:34:14.197Z,98783.97
2023-06-29T07:36:41.280Z,98776.91
2023-06-29T07:39:08.175Z,98777.56
2023-06-29T07:41:34.732Z,98778.66
2023-06-29T07:44:01.517Z,98778.75
2023-06-29T07:46:28.564Z,98775.75
2023-06-29T07:48:56.041Z,98767.06
2023-06-29T07:51:23.930Z,98773.19
2023-06-29T07:53:51.490Z,98769.66
2023-06-29T07:56:18.691Z,98757.72
2023-06-29T07:58:46.108Z,98761.94
2023-06-29T08:01:13.245Z,98769.44
2023-06-29T08:03:55.813Z,98769.06
2023-06-29T08:08:57.335Z,98762.66
2023-06-29T08:11:24.281Z,98763.88
2023-06-29T08:13:52.221Z,98762.78
2023-06-29T08:16:18.889Z,98761.41
2023-06-29T08:18:45.581Z,98754.91
2023-06-29T08:21:12.429Z,98758.63
2023-06-29T08:23:39.018Z,98756.31
2023-06-29T08:26:05.884Z,98756.75
2023-06-29T08:28:32.459Z,98761.22
2023-06-29T08:30:59.026Z,98767.22
2023-06-29T08:33:25.882Z,98764.28
2023-06-29T08:35:52.849Z,98759.91
2023-06-29T08:38:19.567Z,98753.47
2023-06-29T08:40:50.420Z,98764.97
2023-06-29T08:43:17.359Z,98758.34
2023-06-29T08:45:44.592Z,98751.97
2023-06-29T08:48:13.456Z,98751.38
2023-06-29T08:50:55.447Z,98751.69
2023-06-29T08:53:22.281Z,98748.31
2023-06-29T08:55:50.063Z,98749.25
2023-06-29T08:58:16.715Z,98743.28
2023-06-29T09:00:46.997Z,98747.03
2023-06-29T09:03:15.303Z,98747.34
2023-06-29T09:05:46.649Z,98749.91
2023-06-29T09:08:13.474Z,98754.78
2023-06-29T09:10:43.550Z,98755.72
2023-06-29T09:13:10.941Z,98749.97
2023-06-29T09:15:39.452Z,98753.88
2023-06-29T09:18:06.893Z,98754.78
2023-06-29T09:20:37.318Z,98751.22
2023-06-29T09:23:07.047Z,98743.38
2023-06-29T09:25:40.617Z,98749.47
2023-06-29T09:28:09.027Z,98755.34
2023-06-29T09:30:40.458Z,98750.28
2023-06-29T09:33:12.748Z,98747.13
2023-06-29T09:35:41.812Z,98745.53
2023-06-29T09:38:08.494Z,98752.53
2023-06-29T09:40:58.232Z,98741.72
2023-06-29T09:43:29.674Z,98741.09
2023-06-29T09:46:09.710Z,98750.53
2023-06-29T09:51:23.300Z,98743.59
2023-06-29T09:53:50.558Z,98742.22
2023-06-29T09:56:18.035Z,98740.19
2023-06-29T09:58:45.021Z,98738.34
2023-06-29T10:01:11.991Z,98737.22
2023-06-29T10:03:38.576Z,98736.81
2023-06-29T10:06:12.305Z,98728.94
2023-06-29T10:08:41.316Z,98729.50
2023-06-29T10:11:08.053Z,98734.63
2023-06-29T10:13:40.609Z,98722.94
2023-06-29T10:16:10.471Z,98722.25
2023-06-29T10:18:40.668Z,98718.50
2023-06-29T10:21:07.952Z,98728.28
2023-06-29T10:23:35.757Z,98717.72
2023-06-29T10:26:05.401Z,98723.91
2023-06-29T10:28:32.402Z,98729.44
2023-06-29T10:31:00.873Z,98725.13
2023-06-29T10:33:27.658Z,98724.25
2023-06-29T10:36:04.515Z,98722.06
2023-06-29T10:38:35.830Z,98722.66
2023-06-29T10:41:07.301Z,98715.34
2023-06-29T10:44:06.007Z,98713.00
2023-06-29T10:46:49.681Z,98715.03
2023-06-29T10:49:26.590Z,98717.22
2023-06-29T10:51:55.571Z,98710.81
2023-06-29T10:54:25.743Z,98714.38
2023-06-29T10:56:59.302Z,98714.44
2023-06-29T10:59:26.933Z,98709.13
2023-06-29T11:01:54.580Z,98704.63
2023-06-29T11:04:23.290Z,98709.34
2023-06-29T11:06:50.209Z,98708.53
2023-06-29T11:09:17.156Z,98712.72
2023-06-29T11:11:47.263Z,98704.66
2023-06-29T11:14:15.124Z,98705.38
2023-06-29T11:16:42.107Z,98702.53
2023-06-29T11:19:11.030Z,98700.97
2023-06-29T11:21:41.690Z,98690.97
2023-06-29T11:24:10.652Z,98698.53
2023-06-29T11:26:37.416Z,98697.50
2023-06-29T11:29:07.266Z,98701.50
2023-06-29T11:31:33.878Z,98691.78
2023-06-29T11:34:01.369Z,98695.44
2023-06-29T11:36:37.979Z,98694.41
2023-06-29T11:39:12.251Z,98698.78
2023-06-29T11:41:39.899Z,98686.91
2023-06-29T11:46:34.699Z,98687.59
2023-06-29T11:49:05.703Z,98683.09
2023-06-29T11:51:39.723Z,98682.06
2023-06-29T11:54:10.050Z,98683.81
2023-06-29T11:56:41.899Z,98683.97
2023-06-29T11:59:11.543Z,98683.09
2023-06-29T12:01:41.223Z,98683.09
2023-06-29T12:04:15.810Z,98675.09
2023-06-29T12:06:51.877Z,98679.91
2023-06-29T12:09:19.026Z,98669.88
2023-06-29T12:11:45.744Z,98665.69
2023-06-29T12:14:12.571Z,98670.06
2023-06-29T12:19:14.124Z,98673.53
2023-06-29T12:21:42.029Z,98663.69
2023-06-29T12:24:09.003Z,98666.19
2023-06-29T12:26:35.552Z,98669.25
2023-06-29T12:29:02.098Z,98662.53
2023-06-29T12:31:29.430Z,98657.50
2023-06-29T12:33:57.651Z,98659.06
2023-06-29T12:36:24.202Z,98660.28
2023-06-29T12:38:51.359Z,98650.19
2023-06-29T12:41:18.963Z,98651.72
2023-06-29T12:43:45.599Z,98651.72
2023-06-29T12:46:12.797Z,98657.03
2023-06-29T12:48:39.661Z,98646.81
2023-06-29T12:51:06.907Z,98655.66
2023-06-29T12:53:33.846Z,98647.38
2023-06-29T12:56:01.584Z,98643.03
2023-06-29T12:58:28.390Z,98649.03
2023-06-29T13:00:55.224Z,98640.22
2023-06-29T13:03:22.142Z,98645.84
2023-06-29T13:05:51.174Z,98642.28
2023-06-29T13:08:17.973Z,98641.22
2023-06-29T13:10:45.616Z,98641.59
2023-06-29T13:13:12.149Z,98635.66
2023-06-29T13:15:38.774Z,98643.47
2023-06-29T13:18:05.384Z,98639.91
2023-06-29T13:20:31.977Z,98632.88
2023-06-29T13:22:58.513Z,98639.34
2023-06-29T13:25:25.116Z,98634.66
2023-06-29T13:27:51.633Z,98632.56
2023-06-29T13:30:19.866Z,98641.81
2023-06-29T13:32:46.427Z,98637.97
2023-06-29T13:35:13.021Z,98639.91
2023-06-29T13:37:39.560Z,98633.03
2023-06-29T13:40:06.718Z,98634.97
2023-06-29T13:42:33.281Z,98636.22
2023-06-29T13:44:59.815Z,98636.56
2023-06-29T13:47:27.134Z,98639.34
2023-06-29T13:49:53.754Z,98640.13
2023-06-29T13:52:20.318Z,98636.03
2023-06-29T13:54:46.922Z,98641.19
2023-06-29T13:57:15.483Z,98643.59
2023-06-29T13:59:42.079Z,98640.13
2023-06-29T14:02:08.761Z,98634.44
2023-06-29T14:04:35.400Z,98642.25
2023-06-29T14:07:02.032Z,98640.75
2023-06-29T14:09:28.863Z,98629.00
2023-06-29T14:11:55.610Z,98633.03
2023-06-29T14:14:22.124Z,98631.84
2023-06-29T14:16:48.712Z,98629.47
2023-06-29T14:19:15.240Z,98641.13
2023-06-29T14:21:43.558Z,98627.13
2023-06-29T14:24:10.961Z,98635.03
2023-06-29T14:26:37.636Z,98621.56
2023-06-29T14:29:04.278Z,98622.19
2023-06-29T14:31:30.835Z,98627.13
2023-06-29T14:33:59.416Z,98624.53
2023-06-29T14:36:26.225Z,98621.38
2023-06-29T14:38:53.136Z,98623.28
2023-06-29T14:41:20.888Z,98617.91
2023-06-29T14:43:47.478Z,98625.22
2023-06-29T14:46:14.017Z,98623.84
2023-06-29T14:48:40.604Z,98610.06
2023-06-29T14:51:07.156Z,98610.06
2023-06-29T14:53:33.710Z,98612.50
2023-06-29T14:56:10.787Z,98614.00
2023-06-29T14:58:37.947Z,98605.81
2023-06-29T15:01:05.079Z,98604.06
2023-06-29T15:03:35.043Z,98601.47
2023-06-29T15:06:01.642Z,98594.16
2023-06-29T15:08:28.234Z,98600.81
2023-06-29T15:10:54.911Z,98604.66
2023-06-29T15:13:21.507Z,98599.25
2023-06-29T15:15:48.234Z,98598.31
2023-06-29T15:18:15.124Z,98594.00
2023-06-29T15:20:42.060Z,98596.94
2023-06-29T15:23:08.676Z,98592.69
2023-06-29T15:25:37.045Z,98589.91
2023-06-29T15:28:04.418Z,98595.91
2023-06-29T15:30:31.921Z,98589.44
2023-06-29T15:33:01.359Z,98588.28
2023-06-29T15:35:27.905Z,98592.13
2023-06-29T15:37:54.663Z,98587.91
2023-06-29T15:40:21.808Z,98576.16
2023-06-29T15:42:48.340Z,98579.19
2023-06-29T15:45:18.016Z,98579.88
2023-06-29T15:47:44.810Z,98579.03
2023-06-29T15:50:11.465Z,98586.34
2023-06-29T15:52:39.912Z,98579.19
2023-06-29T15:55:07.751Z,98576.41
2023-06-29T15:57:34.364Z,98574.31
2023-06-29T16:00:01.669Z,98571.78
2023-06-29T16:02:31.565Z,98573.81
2023-06-29T16:04:58.196Z,98572.06
2023-06-29T16:07:25.507Z,98564.22
2023-06-29T16:09:52.160Z,98560.34
2023-06-29T16:12:18.746Z,98566.78
2023-06-29T16:14:45.373Z,98570.66
2023-06-29T16:17:12.186Z,98557.13
2023-06-29T16:19:38.842Z,98559.84
2023-06-29T16:22:05.402Z,98559.03
2023-06-29T16:24:32.129Z,98557.38
2023-06-29T16:26:58.800Z,98553.88
2023-06-29T16:29:25.437Z,98550.94
2023-06-29T16:31:52.260Z,98549.91
2023-06-29T16:34:18.904Z,98552.25
2023-06-29T16:36:45.476Z,98557.44
2023-06-29T16:39:12.226Z,98546.47
2023-06-29T16:41:40.590Z,98543.69
2023-06-29T16:44:07.218Z,98551.69
2023-06-29T16:46:34.685Z,98547.25
2023-06-29T16:49:01.808Z,98550.13
2023-06-29T16:51:29.556Z,98543.84
2023-06-29T16:53:57.337Z,98545.72
2023-06-29T16:56:24.179Z,98544.00
2023-06-29T16:58:50.795Z,98544.09
2023-06-29T17:01:18.408Z,98545.03
2023-06-29T17:03:45.222Z,98544.25
2023-06-29T17:06:11.903Z,98538.69
2023-06-29T17:08:41.036Z,98535.31
2023-06-29T17:11:08.333Z,98541.75
2023-06-29T17:13:35.352Z,98534.69
2023-06-29T17:16:02.425Z,98534.75
2023-06-29T17:18:29.006Z,98529.31
2023-06-29T17:20:55.613Z,98538.25
2023-06-29T17:23:22.246Z,98533.97
2023-06-29T17:25:52.137Z,98531.44
2023-06-29T17:28:19.908Z,98528.06
2023-06-29T17:30:46.607Z,98527.41
2023-06-29T17:33:15.042Z,98530.53
2023-06-29T17:35:42.709Z,98536.25
2023-06-29T17:38:09.837Z,98524.00
2023-06-29T17:40:39.448Z,98532.22
2023-06-29T17:43:06.052Z,98525.97
2023-06-29T17:45:32.890Z,98517.16
2023-06-29T17:47:59.556Z,98529.91
2023-06-29T17:50:26.113Z,98529.91
2023-06-29T17:52:52.686Z,98528.03
2023-06-29T17:55:19.436Z,98528.03
2023-06-29T17:57:46.024Z,98521.91
2023-06-29T18:00:14.076Z,98531.97
2023-06-29T18:02:40.871Z,98528.47
2023-06-29T18:05:08.733Z,98520.31
2023-06-29T18:07:35.602Z,98524.75
2023-06-29T18:10:06.114Z,98525.69
2023-06-29T18:12:32.660Z,98522.13
2023-06-29T18:14:59.198Z,98537.50
2023-06-29T18:17:25.850Z,98529.59
2023-06-29T18:19:52.489Z,98533.34
2023-06-29T18:22:18.987Z,98530.94
2023-06-29T18:24:45.513Z,98521.38
2023-06-29T18:27:12.058Z,98534.97
2023-06-29T18:29:38.616Z,98524.19
2023-06-29T18:32:05.732Z,98523.50
2023-06-29T18:34:32.326Z,98535.31
2023-06-29T18:36:58.867Z,98524.69
2023-06-29T18:39:25.353Z,98519.44
2023-06-29T18:41:54.567Z,98523.25
2023-06-29T18:44:21.049Z,98522.56
2023-06-29T18:47:07.626Z,98521.69
2023-06-29T18:49:49.956Z,98517.38
2023-06-29T18:52:17.768Z,98518.34
2023-06-29T18:54:44.678Z,98519.53
2023-06-29T18:57:11.761Z,98513.34
2023-06-29T18:59:39.465Z,98514.44
2023-06-29T19:02:06.177Z,98520.16
2023-06-29T19:04:32.786Z,98518.75
2023-06-29T19:06:59.453Z,98517.88
2023-06-29T19:09:26.579Z,98503.72
2023-06-29T19:11:53.089Z,98512.56
2023-06-29T19:14:19.636Z,98512.88
2023-06-29T19:16:46.280Z,98512.16
2023-06-29T19:19:13.326Z,98513.19
2023-06-29T19:21:48.625Z,98515.09
2023-06-29T19:24:16.542Z,98516.16
2023-06-29T19:26:43.154Z,98519.97
2023-06-29T19:29:11.273Z,98514.66
2023-06-29T19:31:38.050Z,98516.69
2023-06-29T19:34:06.641Z,98523.25
2023-06-29T19:36:33.186Z,98518.81
2023-06-29T19:39:01.238Z,98520.75
2023-06-29T19:41:28.957Z,98527.75
2023-06-29T19:43:55.505Z,98522.44
2023-06-29T19:46:22.250Z,98523.50
2023-06-29T19:48:48.892Z,98520.09
2023-06-29T19:51:15.664Z,98519.31
2023-06-29T19:53:42.251Z,98515.84
2023-06-29T19:56:08.796Z,98512.47
2023-06-29T19:58:35.380Z,98513.13
2023-06-29T20:01:03.175Z,98518.94
2023-06-29T20:03:31.442Z,98518.41
2023-06-29T20:05:58.053Z,98523.88
2023-06-29T20:08:24.620Z,98517.25
2023-06-29T20:10:51.304Z,98513.56
2023-06-29T20:13:17.913Z,98514.84
2023-06-29T20:15:45.509Z,98509.66
2023-06-29T20:18:12.375Z,98507.66
2023-06-29T20:20:38.901Z,98506.72
2023-06-29T20:23:05.499Z,98516.13
2023-06-29T20:25:31.986Z,98506.16
2023-06-29T20:27:58.552Z,98510.59
2023-06-29T20:30:25.064Z,98510.16
2023-06-29T20:32:51.767Z,98508.44
2023-06-29T20:35:18.350Z,98512.28
2023-06-29T20:37:44.904Z,98504.28
2023-06-29T20:40:11.923Z,98504.44
2023-06-29T20:42:39.011Z,98502.69
2023-06-29T20:45:10.346Z,98514.78
2023-06-29T20:47:37.086Z,98509.41
2023-06-29T20:50:03.878Z,98502.41
2023-06-29T20:52:30.375Z,98508.22
2023-06-29T20:54:56.948Z,98508.34
2023-06-29T20:57:23.913Z,98502.84
2023-06-29T20:59:50.764Z,98506.75
2023-06-29T21:02:18.460Z,98507.91
2023-06-29T21:04:45.512Z,98507.28
2023-06-29T21:07:12.176Z,98511.78
2023-06-29T21:09:38.820Z,98508.38
2023-06-29T21:12:05.771Z,98504.06
2023-06-29T21:14:32.691Z,98502.19
2023-06-29T21:17:02.073Z,98505.69
2023-06-29T21:19:28.893Z,98505.81
2023-06-29T21:21:55.682Z,98506.09
2023-06-29T21:24:22.424Z,98506.44
2023-06-29T21:26:49.355Z,98507.38
2023-06-29T21:29:33.985Z,98505.38
2023-06-29T21:32:03.973Z,98502.16
2023-06-29T21:34:34.346Z,98497.91
2023-06-29T21:37:01.213Z,98499.00
2023-06-29T21:39:27.717Z,98494.25
2023-06-29T21:41:54.336Z,98495.91
2023-06-29T21:44:20.935Z,98493.47
2023-06-29T21:46:47.515Z,98491.22
2023-06-29T21:49:15.063Z,98487.03
2023-06-29T21:51:41.754Z,98482.84
2023-06-29T21:54:10.661Z,98491.97
2023-06-29T21:56:39.112Z,98486.59
2023-06-29T21:59:05.715Z,98483.91
2023-06-29T22:01:32.210Z,98489.34
2023-06-29T22:03:59.148Z,98491.97
2023-06-29T22:06:25.772Z,98488.34
2023-06-29T22:08:52.674Z,98490.94
2023-06-29T22:11:20.925Z,98481.84
2023-06-29T22:13:49.269Z,98482.63
2023-06-29T22:16:16.371Z,98484.06
2023-06-29T22:18:42.984Z,98488.41
2023-06-29T22:21:09.523Z,98488.03
2023-06-29T22:23:36.026Z,98482.56
2023-06-29T22:26:02.552Z,98477.19
2023-06-29T22:28:29.281Z,98478.94
2023-06-29T22:30:55.884Z,98476.97
2023-06-29T22:33:22.398Z,98474.44
2023-06-29T22:35:49.360Z,98479.00
2023-06-29T22:38:16.212Z,98479.25
2023-06-29T22:40:42.807Z,98473.09
2023-06-29T22:43:09.290Z,98477.50
2023-06-29T22:45:35.916Z,98474.84
2023-06-29T22:48:03.137Z,98479.06
2023-06-29T22:50:30.105Z,98477.31
2023-06-29T22:52:56.732Z,98473.81
2023-06-29T22:55:23.439Z,98479.25
2023-06-29T22:57:50.215Z,98479.41
2023-06-29T23:00:16.947Z,98484.84
2023-06-29T23:02:43.618Z,98478.72
2023-06-29T23:05:10.902Z,98472.44
2023-06-29T23:07:44.957Z,98474.22
2023-06-29T23:10:13.661Z,98483.81
2023-06-29T23:12:46.480Z,98480.06
2023-06-29T23:15:16.846Z,98475.63
2023-06-29T23:17:44.468Z,98471.94
2023-06-29T23:20:14.354Z,98472.53
2023-06-29T23:22:42.312Z,98474.03
2023-06-29T23:25:09.199Z,98466.38
2023-06-29T23:27:42.804Z,98465.50
2023-06-29T23:30:12.526Z,98467.09
2023-06-29T23:32:43.314Z,98463.03
2023-06-29T23:35:10.390Z,98457.66
2023-06-29T23:37:37.581Z,98461.25
2023-06-29T23:40:10.207Z,98459.06
2023-06-29T23:42:40.443Z,98458.31
2023-06-29T23:45:11.115Z,98457.72
2023-06-29T23:47:39.574Z,98457.97
2023-06-29T23:50:12.111Z,98461.41
2023-06-29T23:52:42.231Z,98454.13
2023-06-29T23:55:12.359Z,98463.28
2023-06-29T23:57:40.205Z,98465.44
